KHYX

Saginaw County H W Browne Airport

Saginaw, Michigan, USA

KHYX 110855Z AUTO 00000KT 10SM SCT033 M10/M12 A3004 RMK AO2

Observed Flight Rules
Dec-11 @ 08:55 UTC (17 minutes ago) Visual Flight Rules
Wind Visibility Clouds
Calm 10 miles
  • Scattered at 3,300' AGL
Temperatures Readings
Current -10°C / 14°F
Dewpoint -12°C / 10°F
Humidity 85%
Altimeter 30.04" Hg
Pressure 1017 hPa
Elevation 183
Observed Flight Rules
Dec-11 @ 08:55 UTC
(17 minutes ago)
VFR
Wind Visibility
Calm 10 miles
Clouds
  • Scattered at 3,300' AGL
Temperature Dewpoint
-10°C / 14°F -12°C / 10°F
Humidity Altimeter Pressure
85% 30.04" Hg 1017 hPa